sensor_id;sensor_type;location;lat;lon;timestamp;P1;durP1;ratioP1;P2;durP2;ratioP2
5951;SDS011;3001;42.622;23.194;2023-02-28T00:00:19;132.40;;;16.87;;
5951;SDS011;3001;42.622;23.194;2023-02-28T00:02:46;63.70;;;15.03;;
5951;SDS011;3001;42.622;23.194;2023-02-28T00:05:14;21.07;;;9.90;;
5951;SDS011;3001;42.622;23.194;2023-02-28T00:07:42;15.37;;;10.60;;
5951;SDS011;3001;42.622;23.194;2023-02-28T00:10:10;43.70;;;11.63;;
5951;SDS011;3001;42.622;23.194;2023-02-28T00:12:38;26.77;;;10.77;;
5951;SDS011;3001;42.622;23.194;2023-02-28T00:15:07;72.37;;;12.03;;
5951;SDS011;3001;42.622;23.194;2023-02-28T00:17:37;43.27;;;9.83;;
5951;SDS011;3001;42.622;23.194;2023-02-28T00:20:05;18.53;;;9.23;;
5951;SDS011;3001;42.622;23.194;2023-02-28T00:22:35;19.13;;;8.50;;
5951;SDS011;3001;42.622;23.194;2023-02-28T00:25:02;7.73;;;6.70;;
5951;SDS011;3001;42.622;23.194;2023-02-28T00:27:29;9.57;;;7.23;;
5951;SDS011;3001;42.622;23.194;2023-02-28T00:29:56;8.63;;;7.40;;
5951;SDS011;3001;42.622;23.194;2023-02-28T00:32:24;8.47;;;7.00;;
5951;SDS011;3001;42.622;23.194;2023-02-28T00:34:51;9.80;;;6.83;;
5951;SDS011;3001;42.622;23.194;2023-02-28T00:37:17;8.03;;;6.27;;
5951;SDS011;3001;42.622;23.194;2023-02-28T00:39:44;10.03;;;6.30;;
5951;SDS011;3001;42.622;23.194;2023-02-28T00:42:11;7.73;;;6.67;;
5951;SDS011;3001;42.622;23.194;2023-02-28T00:44:38;7.17;;;5.53;;
5951;SDS011;3001;42.622;23.194;2023-02-28T00:47:04;5.20;;;3.93;;
5951;SDS011;3001;42.622;23.194;2023-02-28T00:49:32;6.27;;;4.53;;
5951;SDS011;3001;42.622;23.194;2023-02-28T00:51:59;9.13;;;4.77;;
5951;SDS011;3001;42.622;23.194;2023-02-28T00:54:26;8.10;;;5.23;;
5951;SDS011;3001;42.622;23.194;2023-02-28T00:56:53;6.80;;;4.60;;
5951;SDS011;3001;42.622;23.194;2023-02-28T00:59:19;11.33;;;6.30;;
5951;SDS011;3001;42.622;23.194;2023-02-28T01:01:46;11.67;;;7.83;;
5951;SDS011;3001;42.622;23.194;2023-02-28T01:04:13;16.30;;;10.03;;
5951;SDS011;3001;42.622;23.194;2023-02-28T01:06:42;12.93;;;8.60;;
5951;SDS011;3001;42.622;23.194;2023-02-28T01:09:08;35.33;;;11.20;;
5951;SDS011;3001;42.622;23.194;2023-02-28T01:11:35;7.00;;;6.20;;
5951;SDS011;3001;42.622;23.194;2023-02-28T01:14:02;16.17;;;7.50;;
5951;SDS011;3001;42.622;23.194;2023-02-28T01:16:30;10.40;;;6.10;;
5951;SDS011;3001;42.622;23.194;2023-02-28T01:18:57;10.23;;;6.03;;
5951;SDS011;3001;42.622;23.194;2023-02-28T01:21:24;12.93;;;5.37;;
5951;SDS011;3001;42.622;23.194;2023-02-28T01:23:52;17.40;;;7.30;;
5951;SDS011;3001;42.622;23.194;2023-02-28T01:26:22;37.27;;;7.07;;
5951;SDS011;3001;42.622;23.194;2023-02-28T01:28:49;12.03;;;6.30;;
5951;SDS011;3001;42.622;23.194;2023-02-28T01:31:17;9.60;;;5.17;;
5951;SDS011;3001;42.622;23.194;2023-02-28T01:33:44;6.27;;;4.87;;
5951;SDS011;3001;42.622;23.194;2023-02-28T01:36:12;5.43;;;4.90;;
5951;SDS011;3001;42.622;23.194;2023-02-28T01:38:40;12.17;;;6.97;;
5951;SDS011;3001;42.622;23.194;2023-02-28T01:41:08;8.17;;;5.57;;
5951;SDS011;3001;42.622;23.194;2023-02-28T01:43:57;5.63;;;5.07;;
5951;SDS011;3001;42.622;23.194;2023-02-28T01:46:28;4.80;;;4.40;;
5951;SDS011;3001;42.622;23.194;2023-02-28T01:48:58;7.33;;;5.20;;
5951;SDS011;3001;42.622;23.194;2023-02-28T01:51:31;14.20;;;6.87;;
5951;SDS011;3001;42.622;23.194;2023-02-28T01:54:05;12.77;;;6.67;;
5951;SDS011;3001;42.622;23.194;2023-02-28T01:56:41;8.37;;;5.40;;
5951;SDS011;3001;42.622;23.194;2023-02-28T01:59:12;7.97;;;7.17;;
5951;SDS011;3001;42.622;23.194;2023-02-28T02:01:46;9.43;;;6.37;;
5951;SDS011;3001;42.622;23.194;2023-02-28T02:04:13;11.17;;;7.60;;
5951;SDS011;3001;42.622;23.194;2023-02-28T02:06:40;13.70;;;8.80;;
5951;SDS011;3001;42.622;23.194;2023-02-28T02:09:09;14.83;;;7.10;;
5951;SDS011;3001;42.622;23.194;2023-02-28T02:11:36;10.90;;;6.10;;
5951;SDS011;3001;42.622;23.194;2023-02-28T02:17:16;14.30;;;6.23;;
5951;SDS011;3001;42.622;23.194;2023-02-28T02:23:08;9.47;;;6.00;;
5951;SDS011;3001;42.622;23.194;2023-02-28T02:25:54;14.80;;;6.63;;
5951;SDS011;3001;42.622;23.194;2023-02-28T02:28:37;12.63;;;5.73;;
5951;SDS011;3001;42.622;23.194;2023-02-28T02:31:28;19.60;;;7.50;;
5951;SDS011;3001;42.622;23.194;2023-02-28T02:37:08;19.27;;;6.03;;
5951;SDS011;3001;42.622;23.194;2023-02-28T02:39:47;82.30;;;8.53;;
5951;SDS011;3001;42.622;23.194;2023-02-28T02:42:21;38.47;;;7.13;;
5951;SDS011;3001;42.622;23.194;2023-02-28T02:44:55;30.03;;;6.53;;
5951;SDS011;3001;42.622;23.194;2023-02-28T02:47:27;34.67;;;5.90;;
5951;SDS011;3001;42.622;23.194;2023-02-28T02:49:59;26.27;;;5.30;;
5951;SDS011;3001;42.622;23.194;2023-02-28T02:52:32;27.03;;;5.70;;
5951;SDS011;3001;42.622;23.194;2023-02-28T02:55:03;16.77;;;5.10;;
5951;SDS011;3001;42.622;23.194;2023-02-28T02:57:32;22.93;;;5.43;;
5951;SDS011;3001;42.622;23.194;2023-02-28T03:00:02;15.37;;;6.43;;
5951;SDS011;3001;42.622;23.194;2023-02-28T03:02:34;17.77;;;7.43;;
5951;SDS011;3001;42.622;23.194;2023-02-28T03:05:04;28.97;;;6.57;;
5951;SDS011;3001;42.622;23.194;2023-02-28T03:07:34;32.97;;;6.27;;
5951;SDS011;3001;42.622;23.194;2023-02-28T03:10:01;87.77;;;6.50;;
5951;SDS011;3001;42.622;23.194;2023-02-28T03:12:31;42.17;;;5.30;;
5951;SDS011;3001;42.622;23.194;2023-02-28T03:15:07;15.80;;;4.93;;
5951;SDS011;3001;42.622;23.194;2023-02-28T03:17:47;5.87;;;3.83;;
5951;SDS011;3001;42.622;23.194;2023-02-28T03:20:30;5.57;;;3.53;;
5951;SDS011;3001;42.622;23.194;2023-02-28T03:23:07;5.87;;;3.13;;
5951;SDS011;3001;42.622;23.194;2023-02-28T03:25:42;10.60;;;3.53;;
5951;SDS011;3001;42.622;23.194;2023-02-28T03:28:21;7.00;;;3.10;;
5951;SDS011;3001;42.622;23.194;2023-02-28T03:30:55;8.30;;;1.90;;
5951;SDS011;3001;42.622;23.194;2023-02-28T03:33:26;5.57;;;2.70;;
5951;SDS011;3001;42.622;23.194;2023-02-28T03:35:58;10.20;;;3.20;;
5951;SDS011;3001;42.622;23.194;2023-02-28T03:38:31;11.80;;;3.10;;
5951;SDS011;3001;42.622;23.194;2023-02-28T03:41:04;9.47;;;2.40;;
5951;SDS011;3001;42.622;23.194;2023-02-28T03:43:35;3.17;;;2.57;;
5951;SDS011;3001;42.622;23.194;2023-02-28T03:46:05;9.07;;;2.03;;
5951;SDS011;3001;42.622;23.194;2023-02-28T03:48:37;11.23;;;2.03;;
5951;SDS011;3001;42.622;23.194;2023-02-28T03:51:09;5.57;;;1.73;;
5951;SDS011;3001;42.622;23.194;2023-02-28T03:53:41;4.73;;;1.67;;
5951;SDS011;3001;42.622;23.194;2023-02-28T03:56:12;9.13;;;2.97;;
5951;SDS011;3001;42.622;23.194;2023-02-28T03:58:44;4.17;;;2.30;;
5951;SDS011;3001;42.622;23.194;2023-02-28T04:01:16;13.47;;;3.67;;
5951;SDS011;3001;42.622;23.194;2023-02-28T04:03:48;7.27;;;2.30;;
5951;SDS011;3001;42.622;23.194;2023-02-28T04:06:19;6.43;;;3.20;;
5951;SDS011;3001;42.622;23.194;2023-02-28T04:08:47;5.90;;;3.77;;
5951;SDS011;3001;42.622;23.194;2023-02-28T04:11:19;9.00;;;3.33;;
5951;SDS011;3001;42.622;23.194;2023-02-28T04:13:48;8.87;;;3.40;;
5951;SDS011;3001;42.622;23.194;2023-02-28T04:16:15;11.27;;;4.40;;
5951;SDS011;3001;42.622;23.194;2023-02-28T04:18:42;17.60;;;7.57;;
5951;SDS011;3001;42.622;23.194;2023-02-28T04:21:09;17.77;;;7.33;;
5951;SDS011;3001;42.622;23.194;2023-02-28T04:23:37;24.30;;;9.53;;
5951;SDS011;3001;42.622;23.194;2023-02-28T04:26:03;119.30;;;11.80;;
5951;SDS011;3001;42.622;23.194;2023-02-28T04:28:31;22.30;;;10.40;;
5951;SDS011;3001;42.622;23.194;2023-02-28T04:30:58;105.00;;;10.80;;
5951;SDS011;3001;42.622;23.194;2023-02-28T04:33:26;19.00;;;9.67;;
5951;SDS011;3001;42.622;23.194;2023-02-28T04:35:59;51.33;;;11.27;;
5951;SDS011;3001;42.622;23.194;2023-02-28T04:38:27;32.33;;;10.60;;
5951;SDS011;3001;42.622;23.194;2023-02-28T04:40:57;33.70;;;8.93;;
5951;SDS011;3001;42.622;23.194;2023-02-28T04:43:25;53.53;;;9.57;;
5951;SDS011;3001;42.622;23.194;2023-02-28T04:45:53;60.37;;;8.93;;
5951;SDS011;3001;42.622;23.194;2023-02-28T04:48:21;35.77;;;8.87;;
5951;SDS011;3001;42.622;23.194;2023-02-28T04:50:48;19.67;;;9.43;;
5951;SDS011;3001;42.622;23.194;2023-02-28T04:53:15;25.53;;;9.17;;
5951;SDS011;3001;42.622;23.194;2023-02-28T04:55:42;12.83;;;8.80;;
5951;SDS011;3001;42.622;23.194;2023-02-28T04:58:10;61.40;;;11.10;;
5951;SDS011;3001;42.622;23.194;2023-02-28T05:00:37;18.67;;;8.30;;
5951;SDS011;3001;42.622;23.194;2023-02-28T05:03:04;57.87;;;11.33;;
5951;SDS011;3001;42.622;23.194;2023-02-28T05:05:31;62.30;;;12.00;;
5951;SDS011;3001;42.622;23.194;2023-02-28T05:07:57;10.63;;;6.63;;
5951;SDS011;3001;42.622;23.194;2023-02-28T05:10:25;54.10;;;8.27;;
5951;SDS011;3001;42.622;23.194;2023-02-28T05:12:51;10.87;;;6.87;;
5951;SDS011;3001;42.622;23.194;2023-02-28T05:15:19;17.90;;;7.20;;
5951;SDS011;3001;42.622;23.194;2023-02-28T05:17:46;22.57;;;7.87;;
5951;SDS011;3001;42.622;23.194;2023-02-28T05:20:13;47.83;;;9.20;;
5951;SDS011;3001;42.622;23.194;2023-02-28T05:22:39;66.43;;;10.53;;
5951;SDS011;3001;42.622;23.194;2023-02-28T05:25:06;42.00;;;8.97;;
5951;SDS011;3001;42.622;23.194;2023-02-28T05:27:37;41.83;;;10.07;;
5951;SDS011;3001;42.622;23.194;2023-02-28T05:30:04;53.57;;;9.50;;
5951;SDS011;3001;42.622;23.194;2023-02-28T05:32:36;14.40;;;8.90;;
5951;SDS011;3001;42.622;23.194;2023-02-28T05:35:03;23.70;;;9.37;;
5951;SDS011;3001;42.622;23.194;2023-02-28T05:37:31;22.50;;;9.53;;
5951;SDS011;3001;42.622;23.194;2023-02-28T05:39:57;16.10;;;7.90;;
5951;SDS011;3001;42.622;23.194;2023-02-28T05:42:24;14.80;;;9.13;;
5951;SDS011;3001;42.622;23.194;2023-02-28T05:44:51;23.37;;;8.07;;
5951;SDS011;3001;42.622;23.194;2023-02-28T05:47:18;15.93;;;6.93;;
5951;SDS011;3001;42.622;23.194;2023-02-28T05:49:46;17.50;;;9.50;;
5951;SDS011;3001;42.622;23.194;2023-02-28T05:52:12;15.30;;;7.60;;
5951;SDS011;3001;42.622;23.194;2023-02-28T05:54:39;8.93;;;6.00;;
5951;SDS011;3001;42.622;23.194;2023-02-28T05:57:06;13.67;;;6.53;;
5951;SDS011;3001;42.622;23.194;2023-02-28T05:59:33;9.43;;;7.30;;
5951;SDS011;3001;42.622;23.194;2023-02-28T06:01:59;27.60;;;10.13;;
5951;SDS011;3001;42.622;23.194;2023-02-28T06:04:26;57.43;;;12.50;;
5951;SDS011;3001;42.622;23.194;2023-02-28T06:06:54;27.17;;;8.43;;
5951;SDS011;3001;42.622;23.194;2023-02-28T06:09:22;48.53;;;7.43;;
5951;SDS011;3001;42.622;23.194;2023-02-28T06:11:50;54.57;;;8.90;;
5951;SDS011;3001;42.622;23.194;2023-02-28T06:14:18;82.73;;;9.57;;
5951;SDS011;3001;42.622;23.194;2023-02-28T06:16:46;18.63;;;8.70;;
5951;SDS011;3001;42.622;23.194;2023-02-28T06:19:13;57.50;;;9.20;;
5951;SDS011;3001;42.622;23.194;2023-02-28T06:21:40;23.87;;;8.33;;
5951;SDS011;3001;42.622;23.194;2023-02-28T06:24:08;19.63;;;9.50;;
5951;SDS011;3001;42.622;23.194;2023-02-28T06:26:35;19.53;;;10.43;;
5951;SDS011;3001;42.622;23.194;2023-02-28T06:29:02;26.57;;;12.23;;
5951;SDS011;3001;42.622;23.194;2023-02-28T06:31:29;20.87;;;11.17;;
5951;SDS011;3001;42.622;23.194;2023-02-28T06:33:56;33.50;;;13.47;;
5951;SDS011;3001;42.622;23.194;2023-02-28T06:36:22;36.77;;;13.20;;
5951;SDS011;3001;42.622;23.194;2023-02-28T06:38:49;93.50;;;14.10;;
5951;SDS011;3001;42.622;23.194;2023-02-28T06:41:21;23.67;;;12.73;;
5951;SDS011;3001;42.622;23.194;2023-02-28T06:43:48;30.23;;;13.43;;
5951;SDS011;3001;42.622;23.194;2023-02-28T06:46:16;25.50;;;10.83;;
5951;SDS011;3001;42.622;23.194;2023-02-28T06:48:43;32.90;;;12.97;;
5951;SDS011;3001;42.622;23.194;2023-02-28T06:51:10;28.03;;;11.07;;
5951;SDS011;3001;42.622;23.194;2023-02-28T06:53:39;27.03;;;11.77;;
5951;SDS011;3001;42.622;23.194;2023-02-28T06:56:07;20.23;;;9.80;;
5951;SDS011;3001;42.622;23.194;2023-02-28T06:58:37;18.77;;;9.27;;
5951;SDS011;3001;42.622;23.194;2023-02-28T07:01:05;18.77;;;10.73;;
5951;SDS011;3001;42.622;23.194;2023-02-28T07:03:32;22.60;;;11.70;;
5951;SDS011;3001;42.622;23.194;2023-02-28T07:06:00;370.43;;;21.97;;
5951;SDS011;3001;42.622;23.194;2023-02-28T07:08:29;133.57;;;17.47;;
5951;SDS011;3001;42.622;23.194;2023-02-28T07:10:56;33.57;;;17.17;;
5951;SDS011;3001;42.622;23.194;2023-02-28T07:13:24;39.90;;;19.37;;
5951;SDS011;3001;42.622;23.194;2023-02-28T07:15:56;37.50;;;19.07;;
5951;SDS011;3001;42.622;23.194;2023-02-28T07:18:23;68.63;;;19.97;;
5951;SDS011;3001;42.622;23.194;2023-02-28T07:20:50;78.97;;;20.13;;
5951;SDS011;3001;42.622;23.194;2023-02-28T07:23:18;38.17;;;19.03;;
5951;SDS011;3001;42.622;23.194;2023-02-28T07:25:45;75.63;;;25.37;;
5951;SDS011;3001;42.622;23.194;2023-02-28T07:28:11;44.23;;;19.03;;
5951;SDS011;3001;42.622;23.194;2023-02-28T07:30:39;73.47;;;16.93;;
5951;SDS011;3001;42.622;23.194;2023-02-28T07:33:07;52.97;;;15.03;;
5951;SDS011;3001;42.622;23.194;2023-02-28T07:35:34;201.33;;;18.77;;
5951;SDS011;3001;42.622;23.194;2023-02-28T07:38:01;96.97;;;18.37;;
5951;SDS011;3001;42.622;23.194;2023-02-28T07:40:29;148.80;;;18.87;;
5951;SDS011;3001;42.622;23.194;2023-02-28T07:42:55;32.57;;;17.77;;
5951;SDS011;3001;42.622;23.194;2023-02-28T07:45:22;34.57;;;16.43;;
5951;SDS011;3001;42.622;23.194;2023-02-28T07:47:49;42.93;;;18.47;;
5951;SDS011;3001;42.622;23.194;2023-02-28T07:50:17;285.57;;;25.40;;
5951;SDS011;3001;42.622;23.194;2023-02-28T07:52:43;72.83;;;22.43;;
5951;SDS011;3001;42.622;23.194;2023-02-28T07:55:10;93.40;;;23.70;;
5951;SDS011;3001;42.622;23.194;2023-02-28T07:57:37;48.47;;;23.57;;
5951;SDS011;3001;42.622;23.194;2023-02-28T08:00:04;223.10;;;30.73;;
5951;SDS011;3001;42.622;23.194;2023-02-28T08:02:32;322.70;;;26.20;;
5951;SDS011;3001;42.622;23.194;2023-02-28T08:04:59;276.23;;;26.40;;
5951;SDS011;3001;42.622;23.194;2023-02-28T08:07:27;43.53;;;21.17;;
5951;SDS011;3001;42.622;23.194;2023-02-28T08:09:54;77.20;;;33.43;;
5951;SDS011;3001;42.622;23.194;2023-02-28T08:12:20;64.70;;;28.00;;
5951;SDS011;3001;42.622;23.194;2023-02-28T08:14:47;61.27;;;20.93;;
5951;SDS011;3001;42.622;23.194;2023-02-28T08:17:14;74.90;;;23.20;;
5951;SDS011;3001;42.622;23.194;2023-02-28T08:19:40;52.13;;;22.73;;
5951;SDS011;3001;42.622;23.194;2023-02-28T08:22:07;61.37;;;25.13;;
5951;SDS011;3001;42.622;23.194;2023-02-28T08:24:35;52.30;;;25.13;;
5951;SDS011;3001;42.622;23.194;2023-02-28T08:27:02;51.47;;;24.47;;
5951;SDS011;3001;42.622;23.194;2023-02-28T08:29:28;39.13;;;18.73;;
5951;SDS011;3001;42.622;23.194;2023-02-28T08:31:55;51.43;;;18.70;;
5951;SDS011;3001;42.622;23.194;2023-02-28T08:34:23;34.77;;;17.20;;
5951;SDS011;3001;42.622;23.194;2023-02-28T08:36:50;48.83;;;21.77;;
5951;SDS011;3001;42.622;23.194;2023-02-28T08:39:18;42.33;;;19.60;;
5951;SDS011;3001;42.622;23.194;2023-02-28T08:41:46;47.93;;;20.53;;
5951;SDS011;3001;42.622;23.194;2023-02-28T08:44:13;38.93;;;19.03;;
5951;SDS011;3001;42.622;23.194;2023-02-28T08:46:39;36.97;;;15.90;;
5951;SDS011;3001;42.622;23.194;2023-02-28T08:49:06;34.20;;;17.23;;
5951;SDS011;3001;42.622;23.194;2023-02-28T08:51:34;40.00;;;17.30;;
5951;SDS011;3001;42.622;23.194;2023-02-28T08:54:01;40.43;;;19.33;;
5951;SDS011;3001;42.622;23.194;2023-02-28T08:56:28;42.47;;;20.90;;
5951;SDS011;3001;42.622;23.194;2023-02-28T08:58:56;40.47;;;19.77;;
5951;SDS011;3001;42.622;23.194;2023-02-28T09:01:24;33.87;;;18.20;;
5951;SDS011;3001;42.622;23.194;2023-02-28T09:03:53;42.57;;;18.33;;
5951;SDS011;3001;42.622;23.194;2023-02-28T09:06:22;54.20;;;25.90;;
5951;SDS011;3001;42.622;23.194;2023-02-28T09:08:50;52.73;;;23.33;;
5951;SDS011;3001;42.622;23.194;2023-02-28T09:11:17;45.80;;;23.33;;
5951;SDS011;3001;42.622;23.194;2023-02-28T09:13:45;55.77;;;24.07;;
5951;SDS011;3001;42.622;23.194;2023-02-28T09:16:14;55.23;;;22.43;;
5951;SDS011;3001;42.622;23.194;2023-02-28T09:18:42;56.97;;;22.40;;
5951;SDS011;3001;42.622;23.194;2023-02-28T09:21:09;56.70;;;24.27;;
5951;SDS011;3001;42.622;23.194;2023-02-28T09:23:39;56.63;;;24.03;;
5951;SDS011;3001;42.622;23.194;2023-02-28T09:26:06;56.00;;;25.63;;
5951;SDS011;3001;42.622;23.194;2023-02-28T09:28:33;78.97;;;26.70;;
5951;SDS011;3001;42.622;23.194;2023-02-28T09:31:00;58.63;;;26.70;;
5951;SDS011;3001;42.622;23.194;2023-02-28T09:33:30;63.83;;;28.63;;
5951;SDS011;3001;42.622;23.194;2023-02-28T09:35:58;72.63;;;29.97;;
5951;SDS011;3001;42.622;23.194;2023-02-28T09:38:26;61.47;;;28.07;;
5951;SDS011;3001;42.622;23.194;2023-02-28T09:40:53;57.17;;;27.13;;
5951;SDS011;3001;42.622;23.194;2023-02-28T09:43:23;56.13;;;26.37;;
5951;SDS011;3001;42.622;23.194;2023-02-28T09:45:55;59.97;;;26.23;;
5951;SDS011;3001;42.622;23.194;2023-02-28T09:48:27;62.77;;;27.53;;
5951;SDS011;3001;42.622;23.194;2023-02-28T09:51:02;55.13;;;26.53;;
5951;SDS011;3001;42.622;23.194;2023-02-28T09:53:31;65.80;;;28.40;;
5951;SDS011;3001;42.622;23.194;2023-02-28T09:55:59;56.50;;;26.87;;
5951;SDS011;3001;42.622;23.194;2023-02-28T09:58:31;58.53;;;28.63;;
5951;SDS011;3001;42.622;23.194;2023-02-28T10:01:05;54.77;;;28.27;;
5951;SDS011;3001;42.622;23.194;2023-02-28T10:03:40;55.30;;;28.03;;
5951;SDS011;3001;42.622;23.194;2023-02-28T10:06:13;62.77;;;28.63;;
5951;SDS011;3001;42.622;23.194;2023-02-28T10:08:43;56.90;;;27.27;;
5951;SDS011;3001;42.622;23.194;2023-02-28T10:11:16;58.80;;;28.50;;
5951;SDS011;3001;42.622;23.194;2023-02-28T10:13:52;64.10;;;31.93;;
5951;SDS011;3001;42.622;23.194;2023-02-28T10:16:27;59.50;;;30.10;;
5951;SDS011;3001;42.622;23.194;2023-02-28T10:18:59;57.87;;;29.67;;
5951;SDS011;3001;42.622;23.194;2023-02-28T10:21:31;65.17;;;30.67;;
5951;SDS011;3001;42.622;23.194;2023-02-28T10:24:05;70.60;;;32.67;;
5951;SDS011;3001;42.622;23.194;2023-02-28T10:26:45;74.90;;;32.13;;
5951;SDS011;3001;42.622;23.194;2023-02-28T10:29:14;77.43;;;33.60;;
5951;SDS011;3001;42.622;23.194;2023-02-28T10:31:41;77.47;;;33.73;;
5951;SDS011;3001;42.622;23.194;2023-02-28T10:34:09;67.10;;;30.93;;
5951;SDS011;3001;42.622;23.194;2023-02-28T10:36:38;74.00;;;31.60;;
5951;SDS011;3001;42.622;23.194;2023-02-28T10:42:05;58.20;;;29.67;;
5951;SDS011;3001;42.622;23.194;2023-02-28T10:44:45;65.30;;;30.60;;
5951;SDS011;3001;42.622;23.194;2023-02-28T10:47:13;73.70;;;29.97;;
5951;SDS011;3001;42.622;23.194;2023-02-28T10:49:48;66.77;;;30.20;;
5951;SDS011;3001;42.622;23.194;2023-02-28T10:52:32;66.13;;;31.77;;
5951;SDS011;3001;42.622;23.194;2023-02-28T10:55:13;60.43;;;28.43;;
5951;SDS011;3001;42.622;23.194;2023-02-28T10:57:42;56.03;;;27.47;;
5951;SDS011;3001;42.622;23.194;2023-02-28T11:00:12;51.93;;;26.50;;
5951;SDS011;3001;42.622;23.194;2023-02-28T11:02:42;66.43;;;28.63;;
5951;SDS011;3001;42.622;23.194;2023-02-28T11:05:23;60.23;;;29.97;;
5951;SDS011;3001;42.622;23.194;2023-02-28T11:07:52;66.97;;;30.03;;
5951;SDS011;3001;42.622;23.194;2023-02-28T11:10:20;56.87;;;29.30;;
5951;SDS011;3001;42.622;23.194;2023-02-28T11:12:54;51.23;;;27.20;;
5951;SDS011;3001;42.622;23.194;2023-02-28T11:15:23;54.63;;;26.90;;
5951;SDS011;3001;42.622;23.194;2023-02-28T11:17:55;51.70;;;26.43;;
5951;SDS011;3001;42.622;23.194;2023-02-28T11:20:26;56.53;;;25.63;;
5951;SDS011;3001;42.622;23.194;2023-02-28T11:22:55;50.10;;;24.47;;
5951;SDS011;3001;42.622;23.194;2023-02-28T11:25:24;48.13;;;22.20;;
5951;SDS011;3001;42.622;23.194;2023-02-28T11:27:53;45.33;;;21.20;;
5951;SDS011;3001;42.622;23.194;2023-02-28T11:30:29;42.53;;;22.60;;
5951;SDS011;3001;42.622;23.194;2023-02-28T11:32:59;32.17;;;17.27;;
5951;SDS011;3001;42.622;23.194;2023-02-28T11:35:28;26.20;;;15.97;;
5951;SDS011;3001;42.622;23.194;2023-02-28T11:37:59;32.50;;;16.23;;
5951;SDS011;3001;42.622;23.194;2023-02-28T11:40:31;24.03;;;14.07;;
5951;SDS011;3001;42.622;23.194;2023-02-28T11:43:13;24.47;;;13.33;;
5951;SDS011;3001;42.622;23.194;2023-02-28T11:45:57;31.17;;;14.13;;
5951;SDS011;3001;42.622;23.194;2023-02-28T11:48:32;33.60;;;14.17;;
5951;SDS011;3001;42.622;23.194;2023-02-28T11:51:08;19.03;;;13.37;;
5951;SDS011;3001;42.622;23.194;2023-02-28T11:53:55;31.67;;;14.37;;
5951;SDS011;3001;42.622;23.194;2023-02-28T11:56:36;26.03;;;14.23;;
5951;SDS011;3001;42.622;23.194;2023-02-28T11:59:10;26.60;;;14.30;;
5951;SDS011;3001;42.622;23.194;2023-02-28T12:02:05;25.13;;;12.50;;
5951;SDS011;3001;42.622;23.194;2023-02-28T12:04:48;23.97;;;12.57;;
5951;SDS011;3001;42.622;23.194;2023-02-28T12:07:26;27.73;;;13.03;;
5951;SDS011;3001;42.622;23.194;2023-02-28T12:10:01;26.23;;;12.43;;
5951;SDS011;3001;42.622;23.194;2023-02-28T12:12:38;24.97;;;12.63;;
5951;SDS011;3001;42.622;23.194;2023-02-28T12:15:17;23.47;;;12.23;;
5951;SDS011;3001;42.622;23.194;2023-02-28T12:17:58;27.50;;;12.73;;
5951;SDS011;3001;42.622;23.194;2023-02-28T12:20:33;27.23;;;13.47;;
5951;SDS011;3001;42.622;23.194;2023-02-28T12:23:21;25.63;;;13.67;;
5951;SDS011;3001;42.622;23.194;2023-02-28T12:26:02;24.80;;;12.53;;
5951;SDS011;3001;42.622;23.194;2023-02-28T12:28:38;20.70;;;12.70;;
5951;SDS011;3001;42.622;23.194;2023-02-28T12:31:09;18.33;;;11.70;;
5951;SDS011;3001;42.622;23.194;2023-02-28T12:33:40;20.70;;;11.90;;
5951;SDS011;3001;42.622;23.194;2023-02-28T12:36:11;17.23;;;10.83;;
5951;SDS011;3001;42.622;23.194;2023-02-28T12:38:45;19.43;;;12.00;;
5951;SDS011;3001;42.622;23.194;2023-02-28T12:41:16;18.67;;;11.13;;
5951;SDS011;3001;42.622;23.194;2023-02-28T12:43:46;22.53;;;10.93;;
5951;SDS011;3001;42.622;23.194;2023-02-28T12:46:17;19.30;;;11.53;;
5951;SDS011;3001;42.622;23.194;2023-02-28T12:48:48;22.03;;;11.67;;
5951;SDS011;3001;42.622;23.194;2023-02-28T12:51:20;21.27;;;11.33;;
5951;SDS011;3001;42.622;23.194;2023-02-28T12:53:52;19.77;;;10.83;;
5951;SDS011;3001;42.622;23.194;2023-02-28T12:56:30;18.17;;;11.80;;
5951;SDS011;3001;42.622;23.194;2023-02-28T12:59:10;24.20;;;12.93;;
5951;SDS011;3001;42.622;23.194;2023-02-28T13:01:54;21.50;;;11.57;;
5951;SDS011;3001;42.622;23.194;2023-02-28T13:07:25;26.90;;;11.63;;
5951;SDS011;3001;42.622;23.194;2023-02-28T13:10:15;20.70;;;10.97;;
5951;SDS011;3001;42.622;23.194;2023-02-28T13:12:48;21.30;;;11.10;;
5951;SDS011;3001;42.622;23.194;2023-02-28T13:15:17;17.70;;;10.70;;
5951;SDS011;3001;42.622;23.194;2023-02-28T13:17:49;22.37;;;12.30;;
5951;SDS011;3001;42.622;23.194;2023-02-28T13:20:19;20.40;;;12.33;;
5951;SDS011;3001;42.622;23.194;2023-02-28T13:22:50;19.50;;;11.90;;
5951;SDS011;3001;42.622;23.194;2023-02-28T13:31:32;23.90;;;12.60;;
5951;SDS011;3001;42.622;23.194;2023-02-28T13:34:19;24.00;;;13.03;;
5951;SDS011;3001;42.622;23.194;2023-02-28T13:36:46;19.03;;;10.60;;
5951;SDS011;3001;42.622;23.194;2023-02-28T13:47:51;26.47;;;12.63;;
5951;SDS011;3001;42.622;23.194;2023-02-28T13:50:21;24.90;;;12.53;;
5951;SDS011;3001;42.622;23.194;2023-02-28T13:52:56;17.03;;;11.03;;
5951;SDS011;3001;42.622;23.194;2023-02-28T13:55:41;23.67;;;10.73;;
5951;SDS011;3001;42.622;23.194;2023-02-28T13:58:22;20.40;;;10.37;;
5951;SDS011;3001;42.622;23.194;2023-02-28T14:01:03;13.73;;;10.67;;
5951;SDS011;3001;42.622;23.194;2023-02-28T14:03:43;30.03;;;12.20;;
5951;SDS011;3001;42.622;23.194;2023-02-28T14:06:25;21.27;;;11.67;;
5951;SDS011;3001;42.622;23.194;2023-02-28T14:08:57;24.47;;;11.07;;
5951;SDS011;3001;42.622;23.194;2023-02-28T14:11:27;21.90;;;12.33;;
5951;SDS011;3001;42.622;23.194;2023-02-28T14:13:57;16.93;;;10.30;;
5951;SDS011;3001;42.622;23.194;2023-02-28T14:16:25;23.73;;;10.87;;
5951;SDS011;3001;42.622;23.194;2023-02-28T14:18:56;18.27;;;11.33;;
5951;SDS011;3001;42.622;23.194;2023-02-28T14:21:27;20.43;;;11.47;;
5951;SDS011;3001;42.622;23.194;2023-02-28T14:24:11;17.80;;;10.87;;
5951;SDS011;3001;42.622;23.194;2023-02-28T14:33:13;22.70;;;11.80;;
5951;SDS011;3001;42.622;23.194;2023-02-28T14:36:00;17.67;;;10.97;;
5951;SDS011;3001;42.622;23.194;2023-02-28T14:38:33;19.43;;;10.30;;
5951;SDS011;3001;42.622;23.194;2023-02-28T14:41:05;24.63;;;11.67;;
5951;SDS011;3001;42.622;23.194;2023-02-28T14:43:50;20.93;;;12.13;;
5951;SDS011;3001;42.622;23.194;2023-02-28T14:46:20;13.60;;;10.23;;
5951;SDS011;3001;42.622;23.194;2023-02-28T14:48:49;25.53;;;12.43;;
5951;SDS011;3001;42.622;23.194;2023-02-28T14:51:19;21.10;;;11.67;;
5951;SDS011;3001;42.622;23.194;2023-02-28T14:53:48;21.60;;;12.17;;
5951;SDS011;3001;42.622;23.194;2023-02-28T14:56:20;27.43;;;11.87;;
5951;SDS011;3001;42.622;23.194;2023-02-28T14:58:52;19.13;;;11.40;;
5951;SDS011;3001;42.622;23.194;2023-02-28T15:01:20;20.23;;;11.73;;
5951;SDS011;3001;42.622;23.194;2023-02-28T15:03:57;22.27;;;11.90;;
5951;SDS011;3001;42.622;23.194;2023-02-28T15:06:29;23.73;;;13.87;;
5951;SDS011;3001;42.622;23.194;2023-02-28T15:09:07;29.83;;;15.87;;
5951;SDS011;3001;42.622;23.194;2023-02-28T15:11:35;22.77;;;13.03;;
5951;SDS011;3001;42.622;23.194;2023-02-28T15:14:04;28.53;;;13.33;;
5951;SDS011;3001;42.622;23.194;2023-02-28T15:16:31;25.40;;;12.23;;
5951;SDS011;3001;42.622;23.194;2023-02-28T15:19:05;30.50;;;16.60;;
5951;SDS011;3001;42.622;23.194;2023-02-28T15:21:38;32.17;;;18.30;;
5951;SDS011;3001;42.622;23.194;2023-02-28T15:24:10;29.33;;;17.13;;
5951;SDS011;3001;42.622;23.194;2023-02-28T15:26:49;27.33;;;12.93;;
5951;SDS011;3001;42.622;23.194;2023-02-28T15:29:20;29.90;;;12.20;;
5951;SDS011;3001;42.622;23.194;2023-02-28T15:31:49;20.03;;;11.80;;
5951;SDS011;3001;42.622;23.194;2023-02-28T15:34:19;20.67;;;12.43;;
5951;SDS011;3001;42.622;23.194;2023-02-28T15:36:47;21.47;;;12.77;;